sensor_id;sensor_type;location;lat;lon;timestamp;P1;durP1;ratioP1;P2;durP2;ratioP2
28904;SDS011;60848;53.884;11.446;2022-08-19T00:02:01;29.75;;;26.83;;
28904;SDS011;60848;53.884;11.446;2022-08-19T00:04:30;28.63;;;25.80;;
28904;SDS011;60848;53.884;11.446;2022-08-19T00:07:03;27.73;;;24.83;;
28904;SDS011;60848;53.884;11.446;2022-08-19T00:09:34;29.85;;;24.77;;
28904;SDS011;60848;53.884;11.446;2022-08-19T00:12:03;26.45;;;23.65;;
28904;SDS011;60848;53.884;11.446;2022-08-19T00:14:31;30.67;;;27.35;;
28904;SDS011;60848;53.884;11.446;2022-08-19T00:17:00;32.42;;;28.95;;
28904;SDS011;60848;53.884;11.446;2022-08-19T00:19:29;27.13;;;24.23;;
28904;SDS011;60848;53.884;11.446;2022-08-19T00:21:58;28.38;;;24.40;;
28904;SDS011;60848;53.884;11.446;2022-08-19T00:24:26;25.73;;;22.63;;
28904;SDS011;60848;53.884;11.446;2022-08-19T00:26:56;26.13;;;23.30;;
28904;SDS011;60848;53.884;11.446;2022-08-19T00:29:45;25.13;;;21.92;;
28904;SDS011;60848;53.884;11.446;2022-08-19T00:32:18;27.10;;;22.67;;
28904;SDS011;60848;53.884;11.446;2022-08-19T00:34:46;25.17;;;22.67;;
28904;SDS011;60848;53.884;11.446;2022-08-19T00:37:17;25.10;;;22.50;;
28904;SDS011;60848;53.884;11.446;2022-08-19T00:39:49;25.13;;;22.63;;
28904;SDS011;60848;53.884;11.446;2022-08-19T00:42:21;26.60;;;23.73;;
28904;SDS011;60848;53.884;11.446;2022-08-19T00:44:50;28.55;;;24.73;;
28904;SDS011;60848;53.884;11.446;2022-08-19T00:47:18;25.65;;;22.95;;
28904;SDS011;60848;53.884;11.446;2022-08-19T00:49:47;26.98;;;22.25;;
28904;SDS011;60848;53.884;11.446;2022-08-19T00:52:20;26.90;;;23.60;;
28904;SDS011;60848;53.884;11.446;2022-08-19T00:54:55;26.10;;;22.77;;
28904;SDS011;60848;53.884;11.446;2022-08-19T00:57:28;27.42;;;23.25;;
28904;SDS011;60848;53.884;11.446;2022-08-19T01:00:04;26.23;;;23.40;;
28904;SDS011;60848;53.884;11.446;2022-08-19T01:02:38;27.35;;;24.25;;
28904;SDS011;60848;53.884;11.446;2022-08-19T01:05:10;28.55;;;24.02;;
28904;SDS011;60848;53.884;11.446;2022-08-19T01:07:41;26.08;;;23.30;;
28904;SDS011;60848;53.884;11.446;2022-08-19T01:10:11;28.02;;;24.17;;
28904;SDS011;60848;53.884;11.446;2022-08-19T01:12:43;27.70;;;23.55;;
28904;SDS011;60848;53.884;11.446;2022-08-19T01:15:12;28.55;;;25.20;;
28904;SDS011;60848;53.884;11.446;2022-08-19T01:17:45;27.88;;;24.85;;
28904;SDS011;60848;53.884;11.446;2022-08-19T01:20:16;31.73;;;25.77;;
28904;SDS011;60848;53.884;11.446;2022-08-19T01:22:52;27.13;;;24.23;;
28904;SDS011;60848;53.884;11.446;2022-08-19T01:25:22;28.45;;;24.88;;
28904;SDS011;60848;53.884;11.446;2022-08-19T01:27:54;29.85;;;26.05;;
28904;SDS011;60848;53.884;11.446;2022-08-19T01:30:36;28.33;;;25.20;;
28904;SDS011;60848;53.884;11.446;2022-08-19T01:33:09;29.27;;;25.20;;
28904;SDS011;60848;53.884;11.446;2022-08-19T01:35:38;27.75;;;24.75;;
28904;SDS011;60848;53.884;11.446;2022-08-19T01:38:10;28.73;;;25.63;;
28904;SDS011;60848;53.884;11.446;2022-08-19T01:40:47;29.30;;;24.63;;
28904;SDS011;60848;53.884;11.446;2022-08-19T01:43:16;29.70;;;26.58;;
28904;SDS011;60848;53.884;11.446;2022-08-19T01:45:45;30.17;;;26.38;;
28904;SDS011;60848;53.884;11.446;2022-08-19T01:48:14;28.27;;;25.30;;
28904;SDS011;60848;53.884;11.446;2022-08-19T01:50:42;30.45;;;26.75;;
28904;SDS011;60848;53.884;11.446;2022-08-19T01:53:12;30.65;;;27.48;;
28904;SDS011;60848;53.884;11.446;2022-08-19T01:55:42;31.80;;;27.90;;
28904;SDS011;60848;53.884;11.446;2022-08-19T01:58:11;33.38;;;28.90;;
28904;SDS011;60848;53.884;11.446;2022-08-19T02:03:11;30.95;;;27.63;;
28904;SDS011;60848;53.884;11.446;2022-08-19T02:05:40;34.65;;;28.83;;
28904;SDS011;60848;53.884;11.446;2022-08-19T02:08:13;35.00;;;29.58;;
28904;SDS011;60848;53.884;11.446;2022-08-19T02:10:44;35.28;;;30.25;;
28904;SDS011;60848;53.884;11.446;2022-08-19T02:13:15;35.67;;;30.45;;
28904;SDS011;60848;53.884;11.446;2022-08-19T02:15:52;36.35;;;32.35;;
28904;SDS011;60848;53.884;11.446;2022-08-19T02:18:20;37.45;;;30.75;;
28904;SDS011;60848;53.884;11.446;2022-08-19T02:20:53;36.67;;;32.67;;
28904;SDS011;60848;53.884;11.446;2022-08-19T02:23:23;36.33;;;32.38;;
28904;SDS011;60848;53.884;11.446;2022-08-19T02:25:51;36.85;;;31.67;;
28904;SDS011;60848;53.884;11.446;2022-08-19T02:28:20;37.05;;;31.50;;
28904;SDS011;60848;53.884;11.446;2022-08-19T02:30:50;35.45;;;30.95;;
28904;SDS011;60848;53.884;11.446;2022-08-19T02:33:18;38.53;;;32.20;;
28904;SDS011;60848;53.884;11.446;2022-08-19T02:35:47;40.92;;;33.35;;
28904;SDS011;60848;53.884;11.446;2022-08-19T02:38:15;39.40;;;32.35;;
28904;SDS011;60848;53.884;11.446;2022-08-19T02:40:54;40.95;;;32.67;;
28904;SDS011;60848;53.884;11.446;2022-08-19T02:43:24;41.47;;;33.03;;
28904;SDS011;60848;53.884;11.446;2022-08-19T02:45:53;43.13;;;33.65;;
28904;SDS011;60848;53.884;11.446;2022-08-19T02:48:23;38.78;;;33.80;;
28904;SDS011;60848;53.884;11.446;2022-08-19T02:50:53;42.63;;;35.27;;
28904;SDS011;60848;53.884;11.446;2022-08-19T02:53:23;39.47;;;33.45;;
28904;SDS011;60848;53.884;11.446;2022-08-19T02:55:54;44.95;;;33.47;;
28904;SDS011;60848;53.884;11.446;2022-08-19T02:58:23;45.40;;;36.05;;
28904;SDS011;60848;53.884;11.446;2022-08-19T03:00:53;43.75;;;34.00;;
28904;SDS011;60848;53.884;11.446;2022-08-19T03:03:23;47.63;;;35.38;;
28904;SDS011;60848;53.884;11.446;2022-08-19T03:05:51;43.92;;;35.40;;
28904;SDS011;60848;53.884;11.446;2022-08-19T03:08:29;44.42;;;34.83;;
28904;SDS011;60848;53.884;11.446;2022-08-19T03:11:02;45.05;;;34.58;;
28904;SDS011;60848;53.884;11.446;2022-08-19T03:13:31;42.90;;;34.88;;
28904;SDS011;60848;53.884;11.446;2022-08-19T03:15:59;42.35;;;34.20;;
28904;SDS011;60848;53.884;11.446;2022-08-19T03:18:34;49.42;;;36.65;;
28904;SDS011;60848;53.884;11.446;2022-08-19T03:21:03;44.13;;;36.33;;
28904;SDS011;60848;53.884;11.446;2022-08-19T03:23:37;46.90;;;35.28;;
28904;SDS011;60848;53.884;11.446;2022-08-19T03:26:09;47.60;;;35.40;;
28904;SDS011;60848;53.884;11.446;2022-08-19T03:28:42;46.35;;;35.58;;
28904;SDS011;60848;53.884;11.446;2022-08-19T03:31:23;44.50;;;34.30;;
28904;SDS011;60848;53.884;11.446;2022-08-19T03:34:14;48.22;;;35.65;;
28904;SDS011;60848;53.884;11.446;2022-08-19T03:36:43;47.30;;;34.45;;
28904;SDS011;60848;53.884;11.446;2022-08-19T03:39:12;47.38;;;34.90;;
28904;SDS011;60848;53.884;11.446;2022-08-19T03:41:43;44.00;;;35.80;;
28904;SDS011;60848;53.884;11.446;2022-08-19T03:44:14;44.38;;;34.10;;
28904;SDS011;60848;53.884;11.446;2022-08-19T03:46:45;42.25;;;35.10;;
28904;SDS011;60848;53.884;11.446;2022-08-19T03:49:14;43.67;;;35.65;;
28904;SDS011;60848;53.884;11.446;2022-08-19T03:51:45;44.37;;;35.17;;
28904;SDS011;60848;53.884;11.446;2022-08-19T03:54:15;43.67;;;34.15;;
28904;SDS011;60848;53.884;11.446;2022-08-19T03:56:47;44.92;;;34.97;;
28904;SDS011;60848;53.884;11.446;2022-08-19T03:59:20;50.17;;;35.88;;
28904;SDS011;60848;53.884;11.446;2022-08-19T04:01:52;47.25;;;35.38;;
28904;SDS011;60848;53.884;11.446;2022-08-19T04:04:21;48.55;;;33.70;;
28904;SDS011;60848;53.884;11.446;2022-08-19T04:06:54;48.15;;;37.22;;
28904;SDS011;60848;53.884;11.446;2022-08-19T04:09:25;52.03;;;40.42;;
28904;SDS011;60848;53.884;11.446;2022-08-19T04:11:56;59.45;;;39.60;;
28904;SDS011;60848;53.884;11.446;2022-08-19T04:14:25;51.33;;;37.65;;
28904;SDS011;60848;53.884;11.446;2022-08-19T04:16:57;49.55;;;35.90;;
28904;SDS011;60848;53.884;11.446;2022-08-19T04:19:26;49.47;;;36.15;;
28904;SDS011;60848;53.884;11.446;2022-08-19T04:21:58;46.13;;;35.83;;
28904;SDS011;60848;53.884;11.446;2022-08-19T04:24:28;48.35;;;37.20;;
28904;SDS011;60848;53.884;11.446;2022-08-19T04:27:00;47.03;;;38.25;;
28904;SDS011;60848;53.884;11.446;2022-08-19T04:29:29;51.10;;;35.72;;
28904;SDS011;60848;53.884;11.446;2022-08-19T04:31:58;52.35;;;37.63;;
28904;SDS011;60848;53.884;11.446;2022-08-19T04:34:35;50.08;;;36.80;;
28904;SDS011;60848;53.884;11.446;2022-08-19T04:37:24;49.63;;;35.88;;
28904;SDS011;60848;53.884;11.446;2022-08-19T04:40:01;53.42;;;38.40;;
28904;SDS011;60848;53.884;11.446;2022-08-19T04:42:49;47.22;;;36.78;;
28904;SDS011;60848;53.884;11.446;2022-08-19T04:45:18;51.40;;;35.85;;
28904;SDS011;60848;53.884;11.446;2022-08-19T04:47:48;49.08;;;35.47;;
28904;SDS011;60848;53.884;11.446;2022-08-19T04:50:39;54.20;;;37.15;;
28904;SDS011;60848;53.884;11.446;2022-08-19T04:53:08;53.10;;;35.33;;
28904;SDS011;60848;53.884;11.446;2022-08-19T04:55:41;55.72;;;39.72;;
28904;SDS011;60848;53.884;11.446;2022-08-19T04:58:13;50.20;;;36.03;;
28904;SDS011;60848;53.884;11.446;2022-08-19T05:00:42;45.60;;;34.50;;
28904;SDS011;60848;53.884;11.446;2022-08-19T05:03:11;52.33;;;35.22;;
28904;SDS011;60848;53.884;11.446;2022-08-19T05:05:42;54.03;;;34.45;;
28904;SDS011;60848;53.884;11.446;2022-08-19T05:08:11;53.47;;;36.42;;
28904;SDS011;60848;53.884;11.446;2022-08-19T05:10:40;54.83;;;38.67;;
28904;SDS011;60848;53.884;11.446;2022-08-19T05:13:10;53.72;;;40.60;;
28904;SDS011;60848;53.884;11.446;2022-08-19T05:15:41;54.90;;;38.75;;
28904;SDS011;60848;53.884;11.446;2022-08-19T05:18:09;55.65;;;38.85;;
28904;SDS011;60848;53.884;11.446;2022-08-19T05:20:55;56.75;;;38.42;;
28904;SDS011;60848;53.884;11.446;2022-08-19T05:23:41;55.92;;;39.47;;
28904;SDS011;60848;53.884;11.446;2022-08-19T05:26:11;55.25;;;37.05;;
28904;SDS011;60848;53.884;11.446;2022-08-19T05:28:40;48.13;;;35.17;;
28904;SDS011;60848;53.884;11.446;2022-08-19T05:31:11;46.38;;;34.80;;
28904;SDS011;60848;53.884;11.446;2022-08-19T05:33:40;48.50;;;34.50;;
28904;SDS011;60848;53.884;11.446;2022-08-19T05:36:08;47.15;;;35.00;;
28904;SDS011;60848;53.884;11.446;2022-08-19T05:38:37;54.03;;;36.22;;
28904;SDS011;60848;53.884;11.446;2022-08-19T05:41:08;51.87;;;34.73;;
28904;SDS011;60848;53.884;11.446;2022-08-19T05:43:37;51.13;;;33.13;;
28904;SDS011;60848;53.884;11.446;2022-08-19T05:46:07;47.92;;;32.03;;
28904;SDS011;60848;53.884;11.446;2022-08-19T05:48:37;49.30;;;32.00;;
28904;SDS011;60848;53.884;11.446;2022-08-19T05:51:06;45.80;;;32.17;;
28904;SDS011;60848;53.884;11.446;2022-08-19T05:53:35;47.30;;;33.70;;
28904;SDS011;60848;53.884;11.446;2022-08-19T05:56:04;56.83;;;38.53;;
28904;SDS011;60848;53.884;11.446;2022-08-19T05:58:36;54.75;;;34.60;;
28904;SDS011;60848;53.884;11.446;2022-08-19T06:01:08;45.72;;;32.40;;
28904;SDS011;60848;53.884;11.446;2022-08-19T06:03:40;46.10;;;32.47;;
28904;SDS011;60848;53.884;11.446;2022-08-19T06:06:09;47.00;;;33.70;;
28904;SDS011;60848;53.884;11.446;2022-08-19T06:08:38;50.85;;;35.03;;
28904;SDS011;60848;53.884;11.446;2022-08-19T06:11:12;52.60;;;33.42;;
28904;SDS011;60848;53.884;11.446;2022-08-19T06:13:48;52.10;;;34.35;;
28904;SDS011;60848;53.884;11.446;2022-08-19T06:16:27;48.83;;;33.70;;
28904;SDS011;60848;53.884;11.446;2022-08-19T06:19:00;52.78;;;35.05;;
28904;SDS011;60848;53.884;11.446;2022-08-19T06:21:33;57.30;;;35.05;;
28904;SDS011;60848;53.884;11.446;2022-08-19T06:24:04;51.22;;;35.03;;
28904;SDS011;60848;53.884;11.446;2022-08-19T06:26:33;52.33;;;35.70;;
28904;SDS011;60848;53.884;11.446;2022-08-19T06:29:03;53.92;;;33.60;;
28904;SDS011;60848;53.884;11.446;2022-08-19T06:31:34;55.03;;;33.72;;
28904;SDS011;60848;53.884;11.446;2022-08-19T06:34:05;52.28;;;33.75;;
28904;SDS011;60848;53.884;11.446;2022-08-19T06:36:34;47.53;;;32.17;;
28904;SDS011;60848;53.884;11.446;2022-08-19T06:39:11;50.30;;;33.42;;
28904;SDS011;60848;53.884;11.446;2022-08-19T06:41:41;46.58;;;31.83;;
28904;SDS011;60848;53.884;11.446;2022-08-19T06:44:20;58.80;;;36.53;;
28904;SDS011;60848;53.884;11.446;2022-08-19T06:46:52;58.70;;;34.55;;
28904;SDS011;60848;53.884;11.446;2022-08-19T06:49:21;53.10;;;32.67;;
28904;SDS011;60848;53.884;11.446;2022-08-19T06:51:51;47.95;;;32.42;;
28904;SDS011;60848;53.884;11.446;2022-08-19T06:54:19;46.78;;;32.88;;
28904;SDS011;60848;53.884;11.446;2022-08-19T06:56:49;46.53;;;32.60;;
28904;SDS011;60848;53.884;11.446;2022-08-19T06:59:20;67.18;;;49.33;;
28904;SDS011;60848;53.884;11.446;2022-08-19T07:01:57;85.60;;;58.15;;
28904;SDS011;60848;53.884;11.446;2022-08-19T07:04:27;73.80;;;53.30;;
28904;SDS011;60848;53.884;11.446;2022-08-19T07:06:59;53.45;;;38.70;;
28904;SDS011;60848;53.884;11.446;2022-08-19T07:09:47;45.22;;;33.63;;
28904;SDS011;60848;53.884;11.446;2022-08-19T07:12:29;55.58;;;33.72;;
28904;SDS011;60848;53.884;11.446;2022-08-19T07:15:01;52.15;;;34.63;;
28904;SDS011;60848;53.884;11.446;2022-08-19T07:17:32;50.88;;;34.85;;
28904;SDS011;60848;53.884;11.446;2022-08-19T07:20:05;50.53;;;34.78;;
28904;SDS011;60848;53.884;11.446;2022-08-19T07:22:35;49.20;;;34.95;;
28904;SDS011;60848;53.884;11.446;2022-08-19T07:25:05;49.70;;;33.15;;
28904;SDS011;60848;53.884;11.446;2022-08-19T07:27:35;46.75;;;32.67;;
28904;SDS011;60848;53.884;11.446;2022-08-19T07:30:05;43.10;;;30.27;;
28904;SDS011;60848;53.884;11.446;2022-08-19T07:32:39;47.38;;;33.45;;
28904;SDS011;60848;53.884;11.446;2022-08-19T07:35:07;49.00;;;33.60;;
28904;SDS011;60848;53.884;11.446;2022-08-19T07:37:36;48.70;;;33.83;;
28904;SDS011;60848;53.884;11.446;2022-08-19T07:40:10;56.00;;;39.22;;
28904;SDS011;60848;53.884;11.446;2022-08-19T07:42:39;54.40;;;39.10;;
28904;SDS011;60848;53.884;11.446;2022-08-19T07:45:09;91.33;;;66.50;;
28904;SDS011;60848;53.884;11.446;2022-08-19T07:47:39;82.88;;;60.38;;
28904;SDS011;60848;53.884;11.446;2022-08-19T07:50:24;61.95;;;44.13;;
28904;SDS011;60848;53.884;11.446;2022-08-19T07:52:52;57.47;;;37.88;;
28904;SDS011;60848;53.884;11.446;2022-08-19T07:55:22;50.90;;;36.28;;
28904;SDS011;60848;53.884;11.446;2022-08-19T07:58:09;49.53;;;35.88;;
28904;SDS011;60848;53.884;11.446;2022-08-19T08:00:39;50.47;;;36.50;;
28904;SDS011;60848;53.884;11.446;2022-08-19T08:03:12;54.13;;;37.60;;
28904;SDS011;60848;53.884;11.446;2022-08-19T08:05:41;47.80;;;34.55;;
28904;SDS011;60848;53.884;11.446;2022-08-19T08:08:27;49.72;;;32.42;;
28904;SDS011;60848;53.884;11.446;2022-08-19T08:11:14;52.00;;;34.10;;
28904;SDS011;60848;53.884;11.446;2022-08-19T08:16:33;46.83;;;31.50;;
28904;SDS011;60848;53.884;11.446;2022-08-19T08:19:06;46.50;;;35.80;;
28904;SDS011;60848;53.884;11.446;2022-08-19T08:21:51;52.47;;;39.70;;
28904;SDS011;60848;53.884;11.446;2022-08-19T08:24:20;45.97;;;36.60;;
28904;SDS011;60848;53.884;11.446;2022-08-19T08:26:54;50.17;;;36.40;;
28904;SDS011;60848;53.884;11.446;2022-08-19T08:29:23;44.35;;;34.85;;
28904;SDS011;60848;53.884;11.446;2022-08-19T08:32:00;50.25;;;38.60;;
28904;SDS011;60848;53.884;11.446;2022-08-19T08:34:30;54.58;;;41.45;;
28904;SDS011;60848;53.884;11.446;2022-08-19T08:37:00;49.47;;;35.85;;
28904;SDS011;60848;53.884;11.446;2022-08-19T08:39:29;48.13;;;33.53;;
28904;SDS011;60848;53.884;11.446;2022-08-19T08:42:01;86.07;;;62.28;;
28904;SDS011;60848;53.884;11.446;2022-08-19T08:44:44;71.38;;;54.38;;
28904;SDS011;60848;53.884;11.446;2022-08-19T08:47:21;51.83;;;37.03;;
28904;SDS011;60848;53.884;11.446;2022-08-19T08:49:54;44.60;;;34.42;;
28904;SDS011;60848;53.884;11.446;2022-08-19T08:52:27;47.42;;;35.15;;
28904;SDS011;60848;53.884;11.446;2022-08-19T08:55:03;54.83;;;39.80;;
28904;SDS011;60848;53.884;11.446;2022-08-19T08:57:36;50.85;;;37.70;;
28904;SDS011;60848;53.884;11.446;2022-08-19T09:00:13;49.38;;;36.13;;
28904;SDS011;60848;53.884;11.446;2022-08-19T09:02:46;50.25;;;34.65;;
28904;SDS011;60848;53.884;11.446;2022-08-19T09:05:20;47.05;;;34.25;;
28904;SDS011;60848;53.884;11.446;2022-08-19T09:07:53;45.22;;;34.53;;
28904;SDS011;60848;53.884;11.446;2022-08-19T09:10:28;61.47;;;45.88;;
28904;SDS011;60848;53.884;11.446;2022-08-19T09:13:11;63.50;;;48.83;;
28904;SDS011;60848;53.884;11.446;2022-08-19T09:15:52;52.85;;;38.15;;
28904;SDS011;60848;53.884;11.446;2022-08-19T09:18:23;46.90;;;34.70;;
28904;SDS011;60848;53.884;11.446;2022-08-19T09:20:58;57.35;;;41.88;;
28904;SDS011;60848;53.884;11.446;2022-08-19T09:23:27;51.97;;;40.90;;
28904;SDS011;60848;53.884;11.446;2022-08-19T09:25:55;46.40;;;35.08;;
28904;SDS011;60848;53.884;11.446;2022-08-19T09:28:23;51.65;;;37.30;;
28904;SDS011;60848;53.884;11.446;2022-08-19T09:30:52;48.55;;;37.42;;
28904;SDS011;60848;53.884;11.446;2022-08-19T09:33:21;48.45;;;36.90;;
28904;SDS011;60848;53.884;11.446;2022-08-19T09:35:49;48.33;;;35.72;;
28904;SDS011;60848;53.884;11.446;2022-08-19T09:38:20;47.15;;;34.67;;
28904;SDS011;60848;53.884;11.446;2022-08-19T09:40:49;49.67;;;36.47;;
28904;SDS011;60848;53.884;11.446;2022-08-19T09:43:17;54.50;;;38.50;;
28904;SDS011;60848;53.884;11.446;2022-08-19T09:46:01;50.90;;;37.25;;
28904;SDS011;60848;53.884;11.446;2022-08-19T09:48:31;52.33;;;35.78;;
28904;SDS011;60848;53.884;11.446;2022-08-19T09:51:03;52.72;;;39.17;;
28904;SDS011;60848;53.884;11.446;2022-08-19T09:53:38;50.45;;;35.75;;
28904;SDS011;60848;53.884;11.446;2022-08-19T09:56:08;47.33;;;34.15;;
28904;SDS011;60848;53.884;11.446;2022-08-19T09:58:39;49.60;;;33.93;;
28904;SDS011;60848;53.884;11.446;2022-08-19T10:01:07;46.55;;;32.65;;
28904;SDS011;60848;53.884;11.446;2022-08-19T10:03:36;48.58;;;33.50;;
28904;SDS011;60848;53.884;11.446;2022-08-19T10:06:05;48.97;;;34.38;;
28904;SDS011;60848;53.884;11.446;2022-08-19T10:08:45;42.35;;;31.42;;
28904;SDS011;60848;53.884;11.446;2022-08-19T10:11:15;46.08;;;34.65;;
28904;SDS011;60848;53.884;11.446;2022-08-19T10:14:01;56.75;;;44.15;;
28904;SDS011;60848;53.884;11.446;2022-08-19T10:21:33;42.33;;;32.63;;
28904;SDS011;60848;53.884;11.446;2022-08-19T10:24:05;44.55;;;31.75;;
28904;SDS011;60848;53.884;11.446;2022-08-19T10:26:35;44.25;;;32.80;;
28904;SDS011;60848;53.884;11.446;2022-08-19T10:29:08;47.00;;;34.38;;
28904;SDS011;60848;53.884;11.446;2022-08-19T10:31:38;41.35;;;31.83;;
28904;SDS011;60848;53.884;11.446;2022-08-19T10:34:26;43.10;;;32.08;;
28904;SDS011;60848;53.884;11.446;2022-08-19T10:36:56;42.55;;;31.85;;
28904;SDS011;60848;53.884;11.446;2022-08-19T10:39:31;39.88;;;31.35;;
28904;SDS011;60848;53.884;11.446;2022-08-19T10:42:09;43.65;;;32.70;;
28904;SDS011;60848;53.884;11.446;2022-08-19T10:44:39;46.42;;;31.55;;
28904;SDS011;60848;53.884;11.446;2022-08-19T10:47:08;42.60;;;31.63;;
28904;SDS011;60848;53.884;11.446;2022-08-19T10:49:50;40.97;;;30.00;;
28904;SDS011;60848;53.884;11.446;2022-08-19T10:52:37;51.65;;;34.95;;
28904;SDS011;60848;53.884;11.446;2022-08-19T10:55:17;46.00;;;32.20;;
28904;SDS011;60848;53.884;11.446;2022-08-19T10:58:09;39.17;;;30.40;;
28904;SDS011;60848;53.884;11.446;2022-08-19T11:00:39;36.70;;;28.33;;
28904;SDS011;60848;53.884;11.446;2022-08-19T11:03:09;57.53;;;38.15;;
28904;SDS011;60848;53.884;11.446;2022-08-19T11:05:40;62.50;;;47.08;;
28904;SDS011;60848;53.884;11.446;2022-08-19T11:08:10;76.03;;;58.15;;
28904;SDS011;60848;53.884;11.446;2022-08-19T11:10:51;48.00;;;35.65;;
28904;SDS011;60848;53.884;11.446;2022-08-19T11:13:21;43.67;;;33.83;;
28904;SDS011;60848;53.884;11.446;2022-08-19T11:15:58;42.13;;;31.58;;
28904;SDS011;60848;53.884;11.446;2022-08-19T11:18:33;42.40;;;31.77;;
28904;SDS011;60848;53.884;11.446;2022-08-19T11:21:05;48.35;;;37.25;;
28904;SDS011;60848;53.884;11.446;2022-08-19T11:23:37;42.88;;;34.35;;
28904;SDS011;60848;53.884;11.446;2022-08-19T11:26:09;43.20;;;34.00;;
28904;SDS011;60848;53.884;11.446;2022-08-19T11:28:37;43.88;;;34.42;;
28904;SDS011;60848;53.884;11.446;2022-08-19T11:31:09;46.17;;;35.25;;
28904;SDS011;60848;53.884;11.446;2022-08-19T11:33:38;42.83;;;34.63;;
28904;SDS011;60848;53.884;11.446;2022-08-19T11:36:12;41.03;;;31.80;;
28904;SDS011;60848;53.884;11.446;2022-08-19T11:38:41;40.30;;;30.65;;
28904;SDS011;60848;53.884;11.446;2022-08-19T11:41:11;43.67;;;32.67;;
28904;SDS011;60848;53.884;11.446;2022-08-19T11:43:39;39.28;;;31.70;;
28904;SDS011;60848;53.884;11.446;2022-08-19T11:46:08;42.28;;;33.15;;
28904;SDS011;60848;53.884;11.446;2022-08-19T11:48:40;44.97;;;35.67;;
28904;SDS011;60848;53.884;11.446;2022-08-19T11:51:09;41.03;;;34.22;;
28904;SDS011;60848;53.884;11.446;2022-08-19T11:53:39;40.28;;;32.08;;
28904;SDS011;60848;53.884;11.446;2022-08-19T11:56:08;42.38;;;33.53;;
28904;SDS011;60848;53.884;11.446;2022-08-19T11:58:39;48.53;;;40.25;;
28904;SDS011;60848;53.884;11.446;2022-08-19T12:01:08;40.88;;;35.53;;
28904;SDS011;60848;53.884;11.446;2022-08-19T12:03:38;35.03;;;30.92;;
28904;SDS011;60848;53.884;11.446;2022-08-19T12:06:07;34.63;;;28.98;;
28904;SDS011;60848;53.884;11.446;2022-08-19T12:08:39;33.97;;;30.08;;
28904;SDS011;60848;53.884;11.446;2022-08-19T12:11:08;35.63;;;31.25;;
28904;SDS011;60848;53.884;11.446;2022-08-19T12:13:40;38.03;;;32.63;;
28904;SDS011;60848;53.884;11.446;2022-08-19T12:16:11;39.53;;;33.13;;
28904;SDS011;60848;53.884;11.446;2022-08-19T12:18:42;40.13;;;32.50;;
28904;SDS011;60848;53.884;11.446;2022-08-19T12:21:16;41.28;;;33.30;;
28904;SDS011;60848;53.884;11.446;2022-08-19T12:23:50;39.83;;;32.85;;
28904;SDS011;60848;53.884;11.446;2022-08-19T12:28:50;38.70;;;32.45;;
28904;SDS011;60848;53.884;11.446;2022-08-19T12:31:19;37.97;;;32.50;;
28904;SDS011;60848;53.884;11.446;2022-08-19T12:33:47;34.33;;;29.83;;
28904;SDS011;60848;53.884;11.446;2022-08-19T12:36:16;37.33;;;30.10;;
28904;SDS011;60848;53.884;11.446;2022-08-19T12:38:47;33.45;;;28.40;;
28904;SDS011;60848;53.884;11.446;2022-08-19T12:41:16;35.92;;;30.00;;
28904;SDS011;60848;53.884;11.446;2022-08-19T12:43:49;34.92;;;30.23;;
28904;SDS011;60848;53.884;11.446;2022-08-19T12:46:18;35.47;;;29.08;;
28904;SDS011;60848;53.884;11.446;2022-08-19T12:48:51;35.17;;;28.67;;
28904;SDS011;60848;53.884;11.446;2022-08-19T12:51:21;30.60;;;26.75;;
28904;SDS011;60848;53.884;11.446;2022-08-19T12:53:51;32.10;;;26.90;;
28904;SDS011;60848;53.884;11.446;2022-08-19T12:56:21;31.67;;;27.10;;
28904;SDS011;60848;53.884;11.446;2022-08-19T12:58:51;30.45;;;26.08;;
28904;SDS011;60848;53.884;11.446;2022-08-19T13:01:22;28.70;;;24.30;;
28904;SDS011;60848;53.884;11.446;2022-08-19T13:03:51;27.83;;;23.65;;
28904;SDS011;60848;53.884;11.446;2022-08-19T13:06:19;29.83;;;23.80;;
28904;SDS011;60848;53.884;11.446;2022-08-19T13:08:49;26.70;;;23.38;;
28904;SDS011;60848;53.884;11.446;2022-08-19T13:11:23;27.70;;;22.90;;
28904;SDS011;60848;53.884;11.446;2022-08-19T13:13:53;31.42;;;27.52;;
28904;SDS011;60848;53.884;11.446;2022-08-19T13:16:22;46.22;;;37.70;;
28904;SDS011;60848;53.884;11.446;2022-08-19T13:18:50;29.80;;;26.20;;
28904;SDS011;60848;53.884;11.446;2022-08-19T13:21:23;27.45;;;23.63;;
28904;SDS011;60848;53.884;11.446;2022-08-19T13:23:53;28.33;;;24.07;;
28904;SDS011;60848;53.884;11.446;2022-08-19T13:26:21;28.50;;;22.63;;
28904;SDS011;60848;53.884;11.446;2022-08-19T13:28:50;26.10;;;22.48;;
28904;SDS011;60848;53.884;11.446;2022-08-19T13:31:39;26.63;;;21.85;;
28904;SDS011;60848;53.884;11.446;2022-08-19T13:34:27;26.90;;;22.83;;
28904;SDS011;60848;53.884;11.446;2022-08-19T13:36:57;24.52;;;20.23;;
28904;SDS011;60848;53.884;11.446;2022-08-19T13:39:28;24.83;;;21.40;;
28904;SDS011;60848;53.884;11.446;2022-08-19T13:41:59;23.38;;;20.25;;
28904;SDS011;60848;53.884;11.446;2022-08-19T13:44:28;24.30;;;20.30;;
28904;SDS011;60848;53.884;11.446;2022-08-19T13:47:01;25.17;;;20.95;;
28904;SDS011;60848;53.884;11.446;2022-08-19T13:49:32;25.48;;;20.73;;
28904;SDS011;60848;53.884;11.446;2022-08-19T13:52:05;25.33;;;20.95;;
28904;SDS011;60848;53.884;11.446;2022-08-19T13:54:33;25.08;;;21.77;;
28904;SDS011;60848;53.884;11.446;2022-08-19T13:57:04;24.00;;;21.17;;
28904;SDS011;60848;53.884;11.446;2022-08-19T13:59:34;21.53;;;18.67;;
28904;SDS011;60848;53.884;11.446;2022-08-19T14:02:06;22.80;;;19.77;;
28904;SDS011;60848;53.884;11.446;2022-08-19T14:04:35;24.30;;;19.85;;
28904;SDS011;60848;53.884;11.446;2022-08-19T14:07:03;24.63;;;18.90;;
28904;SDS011;60848;53.884;11.446;2022-08-19T14:09:32;22.58;;;19.52;;
28904;SDS011;60848;53.884;11.446;2022-08-19T14:12:02;23.05;;;19.60;;
28904;SDS011;60848;53.884;11.446;2022-08-19T14:14:31;25.15;;;20.63;;
28904;SDS011;60848;53.884;11.446;2022-08-19T14:17:06;25.60;;;20.60;;
28904;SDS011;60848;53.884;11.446;2022-08-19T14:19:38;23.35;;;20.85;;
28904;SDS011;60848;53.884;11.446;2022-08-19T14:22:13;32.35;;;28.85;;
28904;SDS011;60848;53.884;11.446;2022-08-19T14:24:47;25.67;;;20.77;;
28904;SDS011;60848;53.884;11.446;2022-08-19T14:27:16;25.95;;;21.88;;
28904;SDS011;60848;53.884;11.446;2022-08-19T14:29:45;23.58;;;19.55;;
28904;SDS011;60848;53.884;11.446;2022-08-19T14:32:15;24.35;;;21.25;;
28904;SDS011;60848;53.884;11.446;2022-08-19T14:34:44;25.15;;;19.33;;
28904;SDS011;60848;53.884;11.446;2022-08-19T14:37:13;23.90;;;19.08;;
28904;SDS011;60848;53.884;11.446;2022-08-19T14:39:41;25.15;;;19.88;;
28904;SDS011;60848;53.884;11.446;2022-08-19T14:42:11;22.88;;;18.92;;
28904;SDS011;60848;53.884;11.446;2022-08-19T14:44:41;23.23;;;19.20;;
28904;SDS011;60848;53.884;11.446;2022-08-19T14:47:10;22.45;;;18.98;;
28904;SDS011;60848;53.884;11.446;2022-08-19T14:49:40;25.70;;;22.40;;